sensor_id;sensor_type;location;lat;lon;timestamp;P1;durP1;ratioP1;P2;durP2;ratioP2
15490;SDS011;7847;50.930;4.336;2023-07-13T00:02:14;0.20;;;0.20;;
15490;SDS011;7847;50.930;4.336;2023-07-13T00:04:40;0.10;;;0.10;;
15490;SDS011;7847;50.930;4.336;2023-07-13T00:07:07;0.20;;;0.20;;
15490;SDS011;7847;50.930;4.336;2023-07-13T00:09:33;0.20;;;0.20;;
15490;SDS011;7847;50.930;4.336;2023-07-13T00:11:59;0.20;;;0.20;;
15490;SDS011;7847;50.930;4.336;2023-07-13T00:14:25;0.20;;;0.20;;
15490;SDS011;7847;50.930;4.336;2023-07-13T00:16:52;0.15;;;0.15;;
15490;SDS011;7847;50.930;4.336;2023-07-13T00:19:19;0.20;;;0.20;;
15490;SDS011;7847;50.930;4.336;2023-07-13T00:21:45;0.20;;;0.20;;
15490;SDS011;7847;50.930;4.336;2023-07-13T00:24:12;0.20;;;0.20;;
15490;SDS011;7847;50.930;4.336;2023-07-13T00:26:47;0.20;;;0.20;;
15490;SDS011;7847;50.930;4.336;2023-07-13T00:29:13;0.20;;;0.20;;
15490;SDS011;7847;50.930;4.336;2023-07-13T00:31:42;0.20;;;0.20;;
15490;SDS011;7847;50.930;4.336;2023-07-13T00:34:12;0.20;;;0.20;;
15490;SDS011;7847;50.930;4.336;2023-07-13T00:36:38;0.20;;;0.20;;
15490;SDS011;7847;50.930;4.336;2023-07-13T00:39:04;0.20;;;0.20;;
15490;SDS011;7847;50.930;4.336;2023-07-13T00:41:31;0.20;;;0.20;;
15490;SDS011;7847;50.930;4.336;2023-07-13T00:43:57;0.20;;;0.20;;
15490;SDS011;7847;50.930;4.336;2023-07-13T00:46:25;0.20;;;0.20;;
15490;SDS011;7847;50.930;4.336;2023-07-13T00:48:51;0.20;;;0.20;;
15490;SDS011;7847;50.930;4.336;2023-07-13T00:51:19;0.20;;;0.20;;
15490;SDS011;7847;50.930;4.336;2023-07-13T00:53:45;0.20;;;0.20;;
15490;SDS011;7847;50.930;4.336;2023-07-13T00:56:19;0.20;;;0.20;;
15490;SDS011;7847;50.930;4.336;2023-07-13T00:58:45;0.20;;;0.20;;
15490;SDS011;7847;50.930;4.336;2023-07-13T01:01:11;0.20;;;0.20;;
15490;SDS011;7847;50.930;4.336;2023-07-13T01:03:47;0.20;;;0.20;;
15490;SDS011;7847;50.930;4.336;2023-07-13T01:06:21;0.20;;;0.20;;
15490;SDS011;7847;50.930;4.336;2023-07-13T01:08:53;0.20;;;0.20;;
15490;SDS011;7847;50.930;4.336;2023-07-13T01:11:20;0.20;;;0.20;;
15490;SDS011;7847;50.930;4.336;2023-07-13T01:13:47;0.20;;;0.20;;
15490;SDS011;7847;50.930;4.336;2023-07-13T01:16:26;0.20;;;0.20;;
15490;SDS011;7847;50.930;4.336;2023-07-13T01:18:52;0.20;;;0.20;;
15490;SDS011;7847;50.930;4.336;2023-07-13T01:21:18;0.20;;;0.20;;
15490;SDS011;7847;50.930;4.336;2023-07-13T01:23:45;0.20;;;0.20;;
15490;SDS011;7847;50.930;4.336;2023-07-13T01:26:11;0.20;;;0.20;;
15490;SDS011;7847;50.930;4.336;2023-07-13T01:28:46;0.20;;;0.20;;
15490;SDS011;7847;50.930;4.336;2023-07-13T01:31:15;0.20;;;0.20;;
15490;SDS011;7847;50.930;4.336;2023-07-13T01:33:41;0.20;;;0.20;;
15490;SDS011;7847;50.930;4.336;2023-07-13T01:36:13;0.20;;;0.20;;
15490;SDS011;7847;50.930;4.336;2023-07-13T01:38:39;0.20;;;0.20;;
15490;SDS011;7847;50.930;4.336;2023-07-13T01:41:08;0.20;;;0.20;;
15490;SDS011;7847;50.930;4.336;2023-07-13T01:43:34;0.20;;;0.20;;
15490;SDS011;7847;50.930;4.336;2023-07-13T01:46:00;0.20;;;0.20;;
15490;SDS011;7847;50.930;4.336;2023-07-13T01:48:26;0.20;;;0.20;;
15490;SDS011;7847;50.930;4.336;2023-07-13T01:50:52;0.20;;;0.20;;
15490;SDS011;7847;50.930;4.336;2023-07-13T01:53:21;0.20;;;0.20;;
15490;SDS011;7847;50.930;4.336;2023-07-13T01:55:50;0.20;;;0.20;;
15490;SDS011;7847;50.930;4.336;2023-07-13T01:58:16;0.20;;;0.20;;
15490;SDS011;7847;50.930;4.336;2023-07-13T02:00:42;0.20;;;0.20;;
15490;SDS011;7847;50.930;4.336;2023-07-13T02:03:11;0.20;;;0.20;;
15490;SDS011;7847;50.930;4.336;2023-07-13T02:05:42;0.20;;;0.20;;
15490;SDS011;7847;50.930;4.336;2023-07-13T02:08:08;0.20;;;0.20;;
15490;SDS011;7847;50.930;4.336;2023-07-13T02:10:34;0.20;;;0.20;;
15490;SDS011;7847;50.930;4.336;2023-07-13T02:13:00;0.20;;;0.20;;
15490;SDS011;7847;50.930;4.336;2023-07-13T02:15:26;0.20;;;0.20;;
15490;SDS011;7847;50.930;4.336;2023-07-13T02:17:52;0.20;;;0.20;;
15490;SDS011;7847;50.930;4.336;2023-07-13T02:20:18;0.20;;;0.20;;
15490;SDS011;7847;50.930;4.336;2023-07-13T02:22:48;0.20;;;0.20;;
15490;SDS011;7847;50.930;4.336;2023-07-13T02:25:17;0.20;;;0.20;;
15490;SDS011;7847;50.930;4.336;2023-07-13T02:27:43;0.20;;;0.20;;
15490;SDS011;7847;50.930;4.336;2023-07-13T02:30:12;0.20;;;0.20;;
15490;SDS011;7847;50.930;4.336;2023-07-13T02:32:38;0.20;;;0.20;;
15490;SDS011;7847;50.930;4.336;2023-07-13T02:35:04;0.28;;;0.28;;
15490;SDS011;7847;50.930;4.336;2023-07-13T02:37:30;0.20;;;0.20;;
15490;SDS011;7847;50.930;4.336;2023-07-13T02:39:56;0.20;;;0.20;;
15490;SDS011;7847;50.930;4.336;2023-07-13T02:42:22;0.20;;;0.20;;
15490;SDS011;7847;50.930;4.336;2023-07-13T02:44:48;0.20;;;0.20;;
15490;SDS011;7847;50.930;4.336;2023-07-13T02:47:15;0.20;;;0.20;;
15490;SDS011;7847;50.930;4.336;2023-07-13T02:49:41;0.20;;;0.20;;
15490;SDS011;7847;50.930;4.336;2023-07-13T02:52:09;0.20;;;0.20;;
15490;SDS011;7847;50.930;4.336;2023-07-13T02:54:35;0.20;;;0.20;;
15490;SDS011;7847;50.930;4.336;2023-07-13T02:57:01;0.20;;;0.20;;
15490;SDS011;7847;50.930;4.336;2023-07-13T02:59:27;0.20;;;0.20;;
15490;SDS011;7847;50.930;4.336;2023-07-13T03:01:55;0.20;;;0.20;;
15490;SDS011;7847;50.930;4.336;2023-07-13T03:04:21;0.20;;;0.20;;
15490;SDS011;7847;50.930;4.336;2023-07-13T03:06:47;0.20;;;0.20;;
15490;SDS011;7847;50.930;4.336;2023-07-13T03:09:13;0.20;;;0.20;;
15490;SDS011;7847;50.930;4.336;2023-07-13T03:11:39;0.20;;;0.20;;
15490;SDS011;7847;50.930;4.336;2023-07-13T03:14:12;0.20;;;0.20;;
15490;SDS011;7847;50.930;4.336;2023-07-13T03:16:40;0.20;;;0.20;;
15490;SDS011;7847;50.930;4.336;2023-07-13T03:19:06;0.30;;;0.30;;
15490;SDS011;7847;50.930;4.336;2023-07-13T03:21:32;0.10;;;0.10;;
15490;SDS011;7847;50.930;4.336;2023-07-13T03:24:01;0.20;;;0.20;;
15490;SDS011;7847;50.930;4.336;2023-07-13T03:26:27;0.20;;;0.20;;
15490;SDS011;7847;50.930;4.336;2023-07-13T03:28:57;0.20;;;0.20;;
15490;SDS011;7847;50.930;4.336;2023-07-13T03:31:27;0.20;;;0.20;;
15490;SDS011;7847;50.930;4.336;2023-07-13T03:33:54;0.20;;;0.20;;
15490;SDS011;7847;50.930;4.336;2023-07-13T03:36:21;0.20;;;0.20;;
15490;SDS011;7847;50.930;4.336;2023-07-13T03:38:48;0.30;;;0.30;;
15490;SDS011;7847;50.930;4.336;2023-07-13T03:41:15;0.20;;;0.20;;
15490;SDS011;7847;50.930;4.336;2023-07-13T03:43:41;0.20;;;0.20;;
15490;SDS011;7847;50.930;4.336;2023-07-13T03:46:08;0.20;;;0.20;;
15490;SDS011;7847;50.930;4.336;2023-07-13T03:48:34;0.20;;;0.20;;
15490;SDS011;7847;50.930;4.336;2023-07-13T03:51:00;0.20;;;0.20;;
15490;SDS011;7847;50.930;4.336;2023-07-13T03:53:26;0.20;;;0.20;;
15490;SDS011;7847;50.930;4.336;2023-07-13T03:55:55;0.20;;;0.20;;
15490;SDS011;7847;50.930;4.336;2023-07-13T04:00:51;0.20;;;0.20;;
15490;SDS011;7847;50.930;4.336;2023-07-13T04:03:17;0.20;;;0.20;;
15490;SDS011;7847;50.930;4.336;2023-07-13T04:05:43;0.20;;;0.20;;
15490;SDS011;7847;50.930;4.336;2023-07-13T04:08:09;0.20;;;0.20;;
15490;SDS011;7847;50.930;4.336;2023-07-13T04:10:35;0.20;;;0.20;;
15490;SDS011;7847;50.930;4.336;2023-07-13T04:13:01;0.20;;;0.20;;
15490;SDS011;7847;50.930;4.336;2023-07-13T04:15:29;0.20;;;0.20;;
15490;SDS011;7847;50.930;4.336;2023-07-13T04:17:55;0.20;;;0.20;;
15490;SDS011;7847;50.930;4.336;2023-07-13T04:20:28;0.15;;;0.15;;
15490;SDS011;7847;50.930;4.336;2023-07-13T04:22:57;0.20;;;0.20;;
15490;SDS011;7847;50.930;4.336;2023-07-13T04:25:23;0.20;;;0.20;;
15490;SDS011;7847;50.930;4.336;2023-07-13T04:27:52;0.20;;;0.20;;
15490;SDS011;7847;50.930;4.336;2023-07-13T04:30:22;0.20;;;0.20;;
15490;SDS011;7847;50.930;4.336;2023-07-13T04:32:50;0.20;;;0.20;;
15490;SDS011;7847;50.930;4.336;2023-07-13T04:35:17;0.20;;;0.20;;
15490;SDS011;7847;50.930;4.336;2023-07-13T04:37:45;0.20;;;0.20;;
15490;SDS011;7847;50.930;4.336;2023-07-13T04:40:14;0.20;;;0.20;;
15490;SDS011;7847;50.930;4.336;2023-07-13T04:42:40;0.20;;;0.20;;
15490;SDS011;7847;50.930;4.336;2023-07-13T04:45:09;0.20;;;0.20;;
15490;SDS011;7847;50.930;4.336;2023-07-13T04:47:35;0.20;;;0.20;;
15490;SDS011;7847;50.930;4.336;2023-07-13T04:50:01;0.20;;;0.20;;
15490;SDS011;7847;50.930;4.336;2023-07-13T04:52:28;0.20;;;0.20;;
15490;SDS011;7847;50.930;4.336;2023-07-13T04:54:54;0.20;;;0.20;;
15490;SDS011;7847;50.930;4.336;2023-07-13T04:57:20;0.20;;;0.20;;
15490;SDS011;7847;50.930;4.336;2023-07-13T04:59:49;0.20;;;0.20;;
15490;SDS011;7847;50.930;4.336;2023-07-13T05:02:15;0.20;;;0.20;;
15490;SDS011;7847;50.930;4.336;2023-07-13T05:04:41;0.30;;;0.30;;
15490;SDS011;7847;50.930;4.336;2023-07-13T05:07:07;0.20;;;0.20;;
15490;SDS011;7847;50.930;4.336;2023-07-13T05:09:33;0.17;;;0.17;;
15490;SDS011;7847;50.930;4.336;2023-07-13T05:11:59;0.10;;;0.10;;
15490;SDS011;7847;50.930;4.336;2023-07-13T05:14:25;0.20;;;0.20;;
15490;SDS011;7847;50.930;4.336;2023-07-13T05:16:51;0.20;;;0.20;;
15490;SDS011;7847;50.930;4.336;2023-07-13T05:19:17;0.20;;;0.20;;
15490;SDS011;7847;50.930;4.336;2023-07-13T05:21:43;0.20;;;0.20;;
15490;SDS011;7847;50.930;4.336;2023-07-13T05:24:09;0.20;;;0.20;;
15490;SDS011;7847;50.930;4.336;2023-07-13T05:26:35;0.20;;;0.20;;
15490;SDS011;7847;50.930;4.336;2023-07-13T05:29:01;0.20;;;0.20;;
15490;SDS011;7847;50.930;4.336;2023-07-13T05:31:27;0.20;;;0.20;;
15490;SDS011;7847;50.930;4.336;2023-07-13T05:33:53;0.20;;;0.20;;
15490;SDS011;7847;50.930;4.336;2023-07-13T05:36:19;0.20;;;0.20;;
15490;SDS011;7847;50.930;4.336;2023-07-13T05:38:45;0.20;;;0.20;;
15490;SDS011;7847;50.930;4.336;2023-07-13T05:41:11;0.20;;;0.20;;
15490;SDS011;7847;50.930;4.336;2023-07-13T05:43:37;0.20;;;0.20;;
15490;SDS011;7847;50.930;4.336;2023-07-13T05:46:03;0.20;;;0.20;;
15490;SDS011;7847;50.930;4.336;2023-07-13T05:48:29;0.20;;;0.20;;
15490;SDS011;7847;50.930;4.336;2023-07-13T05:50:55;0.20;;;0.20;;
15490;SDS011;7847;50.930;4.336;2023-07-13T05:53:21;0.20;;;0.20;;
15490;SDS011;7847;50.930;4.336;2023-07-13T05:55:47;0.20;;;0.20;;
15490;SDS011;7847;50.930;4.336;2023-07-13T05:58:16;0.20;;;0.20;;
15490;SDS011;7847;50.930;4.336;2023-07-13T06:00:42;0.20;;;0.20;;
15490;SDS011;7847;50.930;4.336;2023-07-13T06:03:08;0.17;;;0.17;;
15490;SDS011;7847;50.930;4.336;2023-07-13T06:05:35;0.10;;;0.10;;
15490;SDS011;7847;50.930;4.336;2023-07-13T06:08:02;0.20;;;0.20;;
15490;SDS011;7847;50.930;4.336;2023-07-13T06:10:28;0.20;;;0.20;;
15490;SDS011;7847;50.930;4.336;2023-07-13T06:12:55;0.20;;;0.20;;
15490;SDS011;7847;50.930;4.336;2023-07-13T06:15:21;0.10;;;0.10;;
15490;SDS011;7847;50.930;4.336;2023-07-13T06:17:47;0.20;;;0.20;;
15490;SDS011;7847;50.930;4.336;2023-07-13T06:20:13;0.20;;;0.20;;
15490;SDS011;7847;50.930;4.336;2023-07-13T06:22:39;0.20;;;0.20;;
15490;SDS011;7847;50.930;4.336;2023-07-13T06:25:05;0.10;;;0.10;;
15490;SDS011;7847;50.930;4.336;2023-07-13T06:27:31;0.20;;;0.20;;
15490;SDS011;7847;50.930;4.336;2023-07-13T06:29:57;0.20;;;0.20;;
15490;SDS011;7847;50.930;4.336;2023-07-13T06:32:23;0.20;;;0.20;;
15490;SDS011;7847;50.930;4.336;2023-07-13T06:34:49;0.20;;;0.20;;
15490;SDS011;7847;50.930;4.336;2023-07-13T06:37:16;0.20;;;0.20;;
15490;SDS011;7847;50.930;4.336;2023-07-13T06:39:42;0.20;;;0.20;;
15490;SDS011;7847;50.930;4.336;2023-07-13T06:42:09;0.20;;;0.20;;
15490;SDS011;7847;50.930;4.336;2023-07-13T06:44:35;0.20;;;0.20;;
15490;SDS011;7847;50.930;4.336;2023-07-13T06:47:02;0.20;;;0.20;;
15490;SDS011;7847;50.930;4.336;2023-07-13T06:49:28;0.20;;;0.20;;
15490;SDS011;7847;50.930;4.336;2023-07-13T06:51:54;0.20;;;0.20;;
15490;SDS011;7847;50.930;4.336;2023-07-13T06:54:20;0.17;;;0.17;;
15490;SDS011;7847;50.930;4.336;2023-07-13T06:56:46;0.20;;;0.20;;
15490;SDS011;7847;50.930;4.336;2023-07-13T06:59:12;0.10;;;0.10;;
15490;SDS011;7847;50.930;4.336;2023-07-13T07:01:38;0.20;;;0.20;;
15490;SDS011;7847;50.930;4.336;2023-07-13T07:04:04;0.10;;;0.10;;
15490;SDS011;7847;50.930;4.336;2023-07-13T07:06:30;0.10;;;0.10;;
15490;SDS011;7847;50.930;4.336;2023-07-13T07:08:56;0.10;;;0.10;;
15490;SDS011;7847;50.930;4.336;2023-07-13T07:11:23;0.20;;;0.20;;
15490;SDS011;7847;50.930;4.336;2023-07-13T07:13:50;0.20;;;0.20;;
15490;SDS011;7847;50.930;4.336;2023-07-13T07:16:16;0.17;;;0.17;;
15490;SDS011;7847;50.930;4.336;2023-07-13T07:18:43;0.20;;;0.20;;
15490;SDS011;7847;50.930;4.336;2023-07-13T07:21:09;0.10;;;0.10;;
15490;SDS011;7847;50.930;4.336;2023-07-13T07:23:35;0.15;;;0.15;;
15490;SDS011;7847;50.930;4.336;2023-07-13T07:26:01;0.20;;;0.20;;
15490;SDS011;7847;50.930;4.336;2023-07-13T07:28:28;0.20;;;0.20;;
15490;SDS011;7847;50.930;4.336;2023-07-13T07:30:55;0.20;;;0.20;;
15490;SDS011;7847;50.930;4.336;2023-07-13T07:33:21;0.20;;;0.20;;
15490;SDS011;7847;50.930;4.336;2023-07-13T07:35:47;0.10;;;0.10;;
15490;SDS011;7847;50.930;4.336;2023-07-13T07:38:13;0.10;;;0.10;;
15490;SDS011;7847;50.930;4.336;2023-07-13T07:40:40;0.20;;;0.20;;
15490;SDS011;7847;50.930;4.336;2023-07-13T07:43:07;0.20;;;0.20;;
15490;SDS011;7847;50.930;4.336;2023-07-13T07:45:34;0.10;;;0.10;;
15490;SDS011;7847;50.930;4.336;2023-07-13T07:48:00;0.20;;;0.20;;
15490;SDS011;7847;50.930;4.336;2023-07-13T07:50:27;0.10;;;0.10;;
15490;SDS011;7847;50.930;4.336;2023-07-13T07:52:53;0.10;;;0.10;;
15490;SDS011;7847;50.930;4.336;2023-07-13T07:55:20;0.10;;;0.10;;
15490;SDS011;7847;50.930;4.336;2023-07-13T07:57:47;0.10;;;0.10;;
15490;SDS011;7847;50.930;4.336;2023-07-13T08:00:13;0.10;;;0.10;;
15490;SDS011;7847;50.930;4.336;2023-07-13T08:02:39;0.20;;;0.20;;
15490;SDS011;7847;50.930;4.336;2023-07-13T08:05:06;0.10;;;0.10;;
15490;SDS011;7847;50.930;4.336;2023-07-13T08:07:32;0.10;;;0.10;;
15490;SDS011;7847;50.930;4.336;2023-07-13T08:09:58;0.10;;;0.10;;
15490;SDS011;7847;50.930;4.336;2023-07-13T08:12:24;0.10;;;0.10;;
15490;SDS011;7847;50.930;4.336;2023-07-13T08:14:50;0.10;;;0.10;;
15490;SDS011;7847;50.930;4.336;2023-07-13T08:17:22;0.10;;;0.10;;
15490;SDS011;7847;50.930;4.336;2023-07-13T08:19:48;0.20;;;0.20;;
15490;SDS011;7847;50.930;4.336;2023-07-13T08:22:14;0.10;;;0.10;;
15490;SDS011;7847;50.930;4.336;2023-07-13T08:24:40;0.03;;;0.03;;
15490;SDS011;7847;50.930;4.336;2023-07-13T08:27:12;0.10;;;0.10;;
15490;SDS011;7847;50.930;4.336;2023-07-13T08:29:39;0.10;;;0.10;;
15490;SDS011;7847;50.930;4.336;2023-07-13T08:32:05;0.10;;;0.10;;
15490;SDS011;7847;50.930;4.336;2023-07-13T08:34:35;0.10;;;0.10;;
15490;SDS011;7847;50.930;4.336;2023-07-13T08:37:02;0.10;;;0.10;;
15490;SDS011;7847;50.930;4.336;2023-07-13T08:39:29;0.10;;;0.10;;
15490;SDS011;7847;50.930;4.336;2023-07-13T08:41:56;0.10;;;0.10;;
15490;SDS011;7847;50.930;4.336;2023-07-13T08:44:49;0.10;;;0.10;;
15490;SDS011;7847;50.930;4.336;2023-07-13T08:47:11;0.10;;;0.10;;
15490;SDS011;7847;50.930;4.336;2023-07-13T08:49:38;0.10;;;0.10;;
15490;SDS011;7847;50.930;4.336;2023-07-13T08:52:11;0.00;;;0.00;;
15490;SDS011;7847;50.930;4.336;2023-07-13T08:54:41;0.10;;;0.10;;
15490;SDS011;7847;50.930;4.336;2023-07-13T08:57:11;0.10;;;0.10;;
15490;SDS011;7847;50.930;4.336;2023-07-13T08:59:38;0.10;;;0.10;;
15490;SDS011;7847;50.930;4.336;2023-07-13T09:04:50;0.10;;;0.10;;
15490;SDS011;7847;50.930;4.336;2023-07-13T09:10:14;0.10;;;0.10;;
15490;SDS011;7847;50.930;4.336;2023-07-13T09:15:21;0.10;;;0.10;;
15490;SDS011;7847;50.930;4.336;2023-07-13T09:17:50;0.10;;;0.10;;
15490;SDS011;7847;50.930;4.336;2023-07-13T09:20:31;0.10;;;0.10;;
15490;SDS011;7847;50.930;4.336;2023-07-13T09:22:59;0.10;;;0.10;;
15490;SDS011;7847;50.930;4.336;2023-07-13T09:25:30;0.10;;;0.10;;
15490;SDS011;7847;50.930;4.336;2023-07-13T09:27:59;0.10;;;0.10;;
15490;SDS011;7847;50.930;4.336;2023-07-13T09:32:52;0.10;;;0.10;;
15490;SDS011;7847;50.930;4.336;2023-07-13T09:35:20;0.10;;;0.10;;
15490;SDS011;7847;50.930;4.336;2023-07-13T09:37:47;0.10;;;0.10;;
15490;SDS011;7847;50.930;4.336;2023-07-13T09:40:20;0.10;;;0.10;;
15490;SDS011;7847;50.930;4.336;2023-07-13T09:42:48;0.10;;;0.10;;
15490;SDS011;7847;50.930;4.336;2023-07-13T09:45:17;0.10;;;0.10;;
15490;SDS011;7847;50.930;4.336;2023-07-13T09:47:53;0.10;;;0.10;;
15490;SDS011;7847;50.930;4.336;2023-07-13T09:50:24;0.00;;;0.00;;
15490;SDS011;7847;50.930;4.336;2023-07-13T09:52:50;0.10;;;0.10;;
15490;SDS011;7847;50.930;4.336;2023-07-13T09:55:23;0.00;;;0.00;;
15490;SDS011;7847;50.930;4.336;2023-07-13T09:57:49;0.10;;;0.10;;
15490;SDS011;7847;50.930;4.336;2023-07-13T10:00:24;0.10;;;0.10;;
15490;SDS011;7847;50.930;4.336;2023-07-13T10:03:00;0.00;;;0.00;;
15490;SDS011;7847;50.930;4.336;2023-07-13T10:05:28;0.00;;;0.00;;
15490;SDS011;7847;50.930;4.336;2023-07-13T10:08:02;0.10;;;0.10;;
15490;SDS011;7847;50.930;4.336;2023-07-13T10:10:34;0.00;;;0.00;;
15490;SDS011;7847;50.930;4.336;2023-07-13T10:13:03;0.10;;;0.10;;
15490;SDS011;7847;50.930;4.336;2023-07-13T10:18:20;0.10;;;0.10;;
15490;SDS011;7847;50.930;4.336;2023-07-13T10:20:46;0.10;;;0.10;;
15490;SDS011;7847;50.930;4.336;2023-07-13T10:23:18;0.10;;;0.10;;
15490;SDS011;7847;50.930;4.336;2023-07-13T10:25:47;0.10;;;0.10;;
15490;SDS011;7847;50.930;4.336;2023-07-13T10:30:46;0.10;;;0.10;;
15490;SDS011;7847;50.930;4.336;2023-07-13T10:33:14;0.10;;;0.10;;
15490;SDS011;7847;50.930;4.336;2023-07-13T10:35:42;0.10;;;0.10;;
15490;SDS011;7847;50.930;4.336;2023-07-13T10:38:17;0.10;;;0.10;;
15490;SDS011;7847;50.930;4.336;2023-07-13T10:43:26;0.03;;;0.03;;
15490;SDS011;7847;50.930;4.336;2023-07-13T10:45:53;0.10;;;0.10;;
15490;SDS011;7847;50.930;4.336;2023-07-13T10:48:20;0.10;;;0.10;;
15490;SDS011;7847;50.930;4.336;2023-07-13T10:50:48;0.10;;;0.10;;
15490;SDS011;7847;50.930;4.336;2023-07-13T10:53:19;0.10;;;0.10;;
15490;SDS011;7847;50.930;4.336;2023-07-13T10:58:32;0.10;;;0.10;;
15490;SDS011;7847;50.930;4.336;2023-07-13T11:01:09;0.10;;;0.10;;
15490;SDS011;7847;50.930;4.336;2023-07-13T11:03:59;0.10;;;0.10;;
15490;SDS011;7847;50.930;4.336;2023-07-13T11:06:38;0.10;;;0.10;;
15490;SDS011;7847;50.930;4.336;2023-07-13T11:11:48;0.10;;;0.10;;
15490;SDS011;7847;50.930;4.336;2023-07-13T11:16:56;0.10;;;0.10;;
15490;SDS011;7847;50.930;4.336;2023-07-13T11:22:01;0.00;;;0.00;;
15490;SDS011;7847;50.930;4.336;2023-07-13T11:24:48;0.00;;;0.00;;
15490;SDS011;7847;50.930;4.336;2023-07-13T11:27:19;0.00;;;0.00;;
15490;SDS011;7847;50.930;4.336;2023-07-13T11:29:47;0.03;;;0.03;;
15490;SDS011;7847;50.930;4.336;2023-07-13T11:32:24;0.10;;;0.10;;
15490;SDS011;7847;50.930;4.336;2023-07-13T11:34:51;0.00;;;0.00;;
15490;SDS011;7847;50.930;4.336;2023-07-13T11:37:19;0.10;;;0.10;;
15490;SDS011;7847;50.930;4.336;2023-07-13T11:39:46;0.00;;;0.00;;
15490;SDS011;7847;50.930;4.336;2023-07-13T11:42:13;0.00;;;0.00;;
15490;SDS011;7847;50.930;4.336;2023-07-13T11:44:43;0.00;;;0.00;;
15490;SDS011;7847;50.930;4.336;2023-07-13T11:47:11;0.10;;;0.10;;
15490;SDS011;7847;50.930;4.336;2023-07-13T11:49:44;0.10;;;0.10;;
15490;SDS011;7847;50.930;4.336;2023-07-13T11:52:14;0.10;;;0.10;;
15490;SDS011;7847;50.930;4.336;2023-07-13T11:57:24;0.10;;;0.10;;
15490;SDS011;7847;50.930;4.336;2023-07-13T11:59:51;0.10;;;0.10;;
15490;SDS011;7847;50.930;4.336;2023-07-13T12:02:22;0.10;;;0.10;;
15490;SDS011;7847;50.930;4.336;2023-07-13T12:04:50;0.20;;;0.20;;
15490;SDS011;7847;50.930;4.336;2023-07-13T12:07:17;0.20;;;0.20;;
15490;SDS011;7847;50.930;4.336;2023-07-13T12:09:47;0.10;;;0.10;;
15490;SDS011;7847;50.930;4.336;2023-07-13T12:12:19;0.10;;;0.10;;
15490;SDS011;7847;50.930;4.336;2023-07-13T12:14:45;0.10;;;0.10;;
15490;SDS011;7847;50.930;4.336;2023-07-13T12:17:15;0.10;;;0.10;;
15490;SDS011;7847;50.930;4.336;2023-07-13T12:19:41;0.10;;;0.10;;
15490;SDS011;7847;50.930;4.336;2023-07-13T12:22:08;0.20;;;0.20;;
15490;SDS011;7847;50.930;4.336;2023-07-13T12:24:34;0.20;;;0.20;;
15490;SDS011;7847;50.930;4.336;2023-07-13T12:27:02;0.15;;;0.15;;
15490;SDS011;7847;50.930;4.336;2023-07-13T12:29:32;0.20;;;0.20;;
15490;SDS011;7847;50.930;4.336;2023-07-13T12:31:58;0.10;;;0.10;;
15490;SDS011;7847;50.930;4.336;2023-07-13T12:34:25;0.20;;;0.20;;
15490;SDS011;7847;50.930;4.336;2023-07-13T12:36:56;0.10;;;0.10;;
15490;SDS011;7847;50.930;4.336;2023-07-13T12:39:32;0.20;;;0.20;;
15490;SDS011;7847;50.930;4.336;2023-07-13T12:44:45;0.10;;;0.10;;
15490;SDS011;7847;50.930;4.336;2023-07-13T12:47:12;0.10;;;0.10;;
15490;SDS011;7847;50.930;4.336;2023-07-13T12:49:43;0.20;;;0.20;;
15490;SDS011;7847;50.930;4.336;2023-07-13T12:52:31;0.20;;;0.20;;
15490;SDS011;7847;50.930;4.336;2023-07-13T12:55:11;0.10;;;0.10;;
15490;SDS011;7847;50.930;4.336;2023-07-13T12:57:41;0.10;;;0.10;;
15490;SDS011;7847;50.930;4.336;2023-07-13T13:00:19;0.20;;;0.20;;
15490;SDS011;7847;50.930;4.336;2023-07-13T13:02:49;0.10;;;0.10;;
15490;SDS011;7847;50.930;4.336;2023-07-13T13:05:16;0.10;;;0.10;;
15490;SDS011;7847;50.930;4.336;2023-07-13T13:07:42;0.10;;;0.10;;
15490;SDS011;7847;50.930;4.336;2023-07-13T13:10:11;0.10;;;0.10;;
15490;SDS011;7847;50.930;4.336;2023-07-13T13:12:38;0.10;;;0.10;;
15490;SDS011;7847;50.930;4.336;2023-07-13T13:15:07;0.10;;;0.10;;
15490;SDS011;7847;50.930;4.336;2023-07-13T13:17:33;0.10;;;0.10;;
15490;SDS011;7847;50.930;4.336;2023-07-13T13:20:00;0.10;;;0.10;;
15490;SDS011;7847;50.930;4.336;2023-07-13T13:22:26;0.10;;;0.10;;
15490;SDS011;7847;50.930;4.336;2023-07-13T13:24:52;0.10;;;0.10;;
15490;SDS011;7847;50.930;4.336;2023-07-13T13:27:19;0.10;;;0.10;;
15490;SDS011;7847;50.930;4.336;2023-07-13T13:29:46;0.10;;;0.10;;
15490;SDS011;7847;50.930;4.336;2023-07-13T13:32:15;0.13;;;0.13;;
15490;SDS011;7847;50.930;4.336;2023-07-13T13:34:41;0.10;;;0.10;;
15490;SDS011;7847;50.930;4.336;2023-07-13T13:37:20;0.10;;;0.10;;
15490;SDS011;7847;50.930;4.336;2023-07-13T13:39:48;0.10;;;0.10;;
15490;SDS011;7847;50.930;4.336;2023-07-13T13:42:16;0.10;;;0.10;;
15490;SDS011;7847;50.930;4.336;2023-07-13T13:44:42;0.00;;;0.00;;
15490;SDS011;7847;50.930;4.336;2023-07-13T13:49:50;0.10;;;0.10;;
15490;SDS011;7847;50.930;4.336;2023-07-13T13:52:16;0.10;;;0.10;;
15490;SDS011;7847;50.930;4.336;2023-07-13T13:54:43;0.10;;;0.10;;
15490;SDS011;7847;50.930;4.336;2023-07-13T13:57:35;0.00;;;0.00;;
15490;SDS011;7847;50.930;4.336;2023-07-13T14:00:01;0.10;;;0.10;;
15490;SDS011;7847;50.930;4.336;2023-07-13T14:02:27;0.00;;;0.00;;
15490;SDS011;7847;50.930;4.336;2023-07-13T14:04:59;0.00;;;0.00;;
15490;SDS011;7847;50.930;4.336;2023-07-13T14:07:26;0.10;;;0.10;;
15490;SDS011;7847;50.930;4.336;2023-07-13T14:09:55;0.00;;;0.00;;
15490;SDS011;7847;50.930;4.336;2023-07-13T14:12:22;0.00;;;0.00;;
15490;SDS011;7847;50.930;4.336;2023-07-13T14:14:51;0.00;;;0.00;;
15490;SDS011;7847;50.930;4.336;2023-07-13T14:17:24;0.00;;;0.00;;
15490;SDS011;7847;50.930;4.336;2023-07-13T14:20:20;0.00;;;0.00;;
15490;SDS011;7847;50.930;4.336;2023-07-13T14:22:47;0.10;;;0.10;;
15490;SDS011;7847;50.930;4.336;2023-07-13T14:25:14;0.10;;;0.10;;
15490;SDS011;7847;50.930;4.336;2023-07-13T14:27:40;0.10;;;0.10;;
15490;SDS011;7847;50.930;4.336;2023-07-13T14:30:17;0.10;;;0.10;;
15490;SDS011;7847;50.930;4.336;2023-07-13T14:32:43;0.00;;;0.00;;
15490;SDS011;7847;50.930;4.336;2023-07-13T14:35:13;0.10;;;0.10;;
15490;SDS011;7847;50.930;4.336;2023-07-13T14:37:40;0.10;;;0.10;;
15490;SDS011;7847;50.930;4.336;2023-07-13T14:40:14;0.00;;;0.00;;
15490;SDS011;7847;50.930;4.336;2023-07-13T14:42:40;0.00;;;0.00;;
15490;SDS011;7847;50.930;4.336;2023-07-13T14:45:12;0.10;;;0.10;;
15490;SDS011;7847;50.930;4.336;2023-07-13T14:47:38;0.00;;;0.00;;
15490;SDS011;7847;50.930;4.336;2023-07-13T14:50:04;0.00;;;0.00;;
15490;SDS011;7847;50.930;4.336;2023-07-13T14:52:30;0.00;;;0.00;;
15490;SDS011;7847;50.930;4.336;2023-07-13T14:54:56;0.00;;;0.00;;
15490;SDS011;7847;50.930;4.336;2023-07-13T14:57:22;0.10;;;0.10;;
15490;SDS011;7847;50.930;4.336;2023-07-13T14:59:48;0.00;;;0.00;;
15490;SDS011;7847;50.930;4.336;2023-07-13T15:04:42;0.10;;;0.10;;
15490;SDS011;7847;50.930;4.336;2023-07-13T15:07:10;0.10;;;0.10;;
15490;SDS011;7847;50.930;4.336;2023-07-13T15:09:43;0.00;;;0.00;;
15490;SDS011;7847;50.930;4.336;2023-07-13T15:12:09;0.00;;;0.00;;
15490;SDS011;7847;50.930;4.336;2023-07-13T15:14:37;0.10;;;0.10;;
15490;SDS011;7847;50.930;4.336;2023-07-13T15:17:14;0.03;;;0.03;;
15490;SDS011;7847;50.930;4.336;2023-07-13T15:19:44;0.00;;;0.00;;
15490;SDS011;7847;50.930;4.336;2023-07-13T15:22:14;0.00;;;0.00;;
15490;SDS011;7847;50.930;4.336;2023-07-13T15:24:42;0.10;;;0.10;;
15490;SDS011;7847;50.930;4.336;2023-07-13T15:27:10;0.00;;;0.00;;
15490;SDS011;7847;50.930;4.336;2023-07-13T15:29:37;0.00;;;0.00;;
15490;SDS011;7847;50.930;4.336;2023-07-13T15:32:04;0.00;;;0.00;;
15490;SDS011;7847;50.930;4.336;2023-07-13T15:34:31;0.00;;;0.00;;
15490;SDS011;7847;50.930;4.336;2023-07-13T15:36:57;0.00;;;0.00;;
15490;SDS011;7847;50.930;4.336;2023-07-13T15:39:25;0.00;;;0.00;;
15490;SDS011;7847;50.930;4.336;2023-07-13T15:41:52;0.00;;;0.00;;
15490;SDS011;7847;50.930;4.336;2023-07-13T15:44:29;0.00;;;0.00;;
15490;SDS011;7847;50.930;4.336;2023-07-13T15:46:55;0.00;;;0.00;;
15490;SDS011;7847;50.930;4.336;2023-07-13T15:49:22;0.00;;;0.00;;